sensor_id;sensor_type;location;lat;lon;timestamp;temperature;humidity
85191;DHT22;75560;0.000;0.000;2024-03-23T00:54:19;19.40;54.10
85191;DHT22;75560;0.000;0.000;2024-03-23T00:56:44;19.40;54.30
85191;DHT22;75560;0.000;0.000;2024-03-23T00:59:10;19.40;54.20
85191;DHT22;75560;0.000;0.000;2024-03-23T01:01:35;19.40;54.20
85191;DHT22;75560;0.000;0.000;2024-03-23T01:04:01;19.40;54.10
85191;DHT22;75560;0.000;0.000;2024-03-23T01:06:27;19.50;54.20
85191;DHT22;75560;0.000;0.000;2024-03-23T01:08:53;19.40;54.00
85191;DHT22;75560;0.000;0.000;2024-03-23T01:11:19;19.50;54.30
85191;DHT22;75560;0.000;0.000;2024-03-23T01:13:44;19.40;54.10
85191;DHT22;75560;0.000;0.000;2024-03-23T01:16:10;19.40;54.10
85191;DHT22;75560;0.000;0.000;2024-03-23T01:18:35;19.40;54.20
85191;DHT22;75560;0.000;0.000;2024-03-23T01:21:01;19.40;54.20
85191;DHT22;75560;0.000;0.000;2024-03-23T01:23:26;19.40;54.10
85191;DHT22;75560;0.000;0.000;2024-03-23T01:25:55;19.40;54.20
85191;DHT22;75560;0.000;0.000;2024-03-23T01:28:21;19.40;54.20
85191;DHT22;75560;0.000;0.000;2024-03-23T01:30:47;19.40;54.10
85191;DHT22;75560;0.000;0.000;2024-03-23T01:33:13;19.40;54.20
85191;DHT22;75560;0.000;0.000;2024-03-23T01:35:38;19.40;54.30
85191;DHT22;75560;0.000;0.000;2024-03-23T01:38:04;19.40;54.40
85191;DHT22;75560;0.000;0.000;2024-03-23T01:40:30;19.40;54.30
85191;DHT22;75560;0.000;0.000;2024-03-23T01:43:05;19.40;54.30
85191;DHT22;75560;0.000;0.000;2024-03-23T01:45:32;19.40;54.40
85191;DHT22;75560;0.000;0.000;2024-03-23T01:47:58;19.40;54.40
85191;DHT22;75560;0.000;0.000;2024-03-23T01:50:24;19.40;54.50
85191;DHT22;75560;0.000;0.000;2024-03-23T01:52:50;19.40;54.50
85191;DHT22;75560;0.000;0.000;2024-03-23T01:55:16;19.30;54.60
85191;DHT22;75560;0.000;0.000;2024-03-23T01:57:42;19.30;54.70
85191;DHT22;75560;0.000;0.000;2024-03-23T02:00:08;19.30;54.60
85191;DHT22;75560;0.000;0.000;2024-03-23T02:02:35;19.30;54.60
85191;DHT22;75560;0.000;0.000;2024-03-23T02:05:00;19.30;54.60
85191;DHT22;75560;0.000;0.000;2024-03-23T02:07:26;19.30;54.60
85191;DHT22;75560;0.000;0.000;2024-03-23T02:09:52;19.30;54.70
85191;DHT22;75560;0.000;0.000;2024-03-23T02:12:18;19.30;54.70
85191;DHT22;75560;0.000;0.000;2024-03-23T02:14:44;19.30;54.60
85191;DHT22;75560;0.000;0.000;2024-03-23T02:17:10;19.30;54.60
85191;DHT22;75560;0.000;0.000;2024-03-23T02:19:35;19.30;54.60
85191;DHT22;75560;0.000;0.000;2024-03-23T02:22:01;19.20;54.40
85191;DHT22;75560;0.000;0.000;2024-03-23T02:24:26;19.20;54.50
85191;DHT22;75560;0.000;0.000;2024-03-23T02:26:52;19.20;54.50
85191;DHT22;75560;0.000;0.000;2024-03-23T02:29:17;19.20;54.50
85191;DHT22;75560;0.000;0.000;2024-03-23T02:31:44;19.30;54.60
85191;DHT22;75560;0.000;0.000;2024-03-23T02:34:10;19.30;54.60
85191;DHT22;75560;0.000;0.000;2024-03-23T02:36:36;19.30;54.60
85191;DHT22;75560;0.000;0.000;2024-03-23T02:39:01;19.30;54.40
85191;DHT22;75560;0.000;0.000;2024-03-23T02:41:27;19.30;54.50
85191;DHT22;75560;0.000;0.000;2024-03-23T02:43:52;19.30;54.60
85191;DHT22;75560;0.000;0.000;2024-03-23T02:46:18;19.30;54.40
85191;DHT22;75560;0.000;0.000;2024-03-23T02:48:44;19.30;54.40
85191;DHT22;75560;0.000;0.000;2024-03-23T02:51:09;19.30;54.40
85191;DHT22;75560;0.000;0.000;2024-03-23T02:53:36;19.30;54.40
85191;DHT22;75560;0.000;0.000;2024-03-23T02:56:01;19.30;54.20
85191;DHT22;75560;0.000;0.000;2024-03-23T02:58:27;19.30;54.20
85191;DHT22;75560;0.000;0.000;2024-03-23T03:00:53;19.30;54.20
85191;DHT22;75560;0.000;0.000;2024-03-23T03:03:18;19.30;54.30
85191;DHT22;75560;0.000;0.000;2024-03-23T03:05:44;19.30;54.30
85191;DHT22;75560;0.000;0.000;2024-03-23T03:08:09;19.30;54.20
85191;DHT22;75560;0.000;0.000;2024-03-23T03:10:35;19.30;54.30
85191;DHT22;75560;0.000;0.000;2024-03-23T03:13:02;19.30;54.30
85191;DHT22;75560;0.000;0.000;2024-03-23T03:15:27;19.30;54.20
85191;DHT22;75560;0.000;0.000;2024-03-23T03:17:53;19.30;54.20
85191;DHT22;75560;0.000;0.000;2024-03-23T03:20:19;19.40;54.10
85191;DHT22;75560;0.000;0.000;2024-03-23T03:22:44;19.40;54.30
85191;DHT22;75560;0.000;0.000;2024-03-23T03:25:10;19.30;54.10
85191;DHT22;75560;0.000;0.000;2024-03-23T03:27:35;19.30;54.20
85191;DHT22;75560;0.000;0.000;2024-03-23T03:30:01;19.30;54.30
85191;DHT22;75560;0.000;0.000;2024-03-23T03:32:29;19.30;54.20
85191;DHT22;75560;0.000;0.000;2024-03-23T03:34:55;19.30;54.20
85191;DHT22;75560;0.000;0.000;2024-03-23T03:37:21;19.30;54.30
85191;DHT22;75560;0.000;0.000;2024-03-23T03:39:47;19.30;54.30
85191;DHT22;75560;0.000;0.000;2024-03-23T03:42:14;19.30;54.40
85191;DHT22;75560;0.000;0.000;2024-03-23T03:44:39;19.30;54.50
85191;DHT22;75560;0.000;0.000;2024-03-23T03:47:06;19.30;54.40
85191;DHT22;75560;0.000;0.000;2024-03-23T03:49:31;19.30;54.40
85191;DHT22;75560;0.000;0.000;2024-03-23T03:51:57;19.30;54.40
85191;DHT22;75560;0.000;0.000;2024-03-23T03:54:22;19.20;54.30
85191;DHT22;75560;0.000;0.000;2024-03-23T03:56:48;19.20;54.20
85191;DHT22;75560;0.000;0.000;2024-03-23T03:59:13;19.20;54.20
85191;DHT22;75560;0.000;0.000;2024-03-23T04:01:39;19.20;54.10
85191;DHT22;75560;0.000;0.000;2024-03-23T04:04:05;19.20;54.30
85191;DHT22;75560;0.000;0.000;2024-03-23T04:06:31;19.20;54.40
85191;DHT22;75560;0.000;0.000;2024-03-23T04:08:58;19.10;54.50
85191;DHT22;75560;0.000;0.000;2024-03-23T04:11:24;19.20;54.60
85191;DHT22;75560;0.000;0.000;2024-03-23T04:16:28;19.20;54.50
85191;DHT22;75560;0.000;0.000;2024-03-23T04:18:54;19.10;54.50
85191;DHT22;75560;0.000;0.000;2024-03-23T04:21:21;19.20;54.40
85191;DHT22;75560;0.000;0.000;2024-03-23T04:23:47;19.20;54.40
85191;DHT22;75560;0.000;0.000;2024-03-23T04:26:12;19.20;54.40
85191;DHT22;75560;0.000;0.000;2024-03-23T04:28:38;19.20;54.60
85191;DHT22;75560;0.000;0.000;2024-03-23T04:31:04;19.20;54.60
85191;DHT22;75560;0.000;0.000;2024-03-23T04:33:30;19.20;54.50
85191;DHT22;75560;0.000;0.000;2024-03-23T04:35:56;19.20;54.40
85191;DHT22;75560;0.000;0.000;2024-03-23T04:38:22;19.10;54.20
85191;DHT22;75560;0.000;0.000;2024-03-23T04:40:59;19.20;54.50
85191;DHT22;75560;0.000;0.000;2024-03-23T04:43:26;19.20;54.30
85191;DHT22;75560;0.000;0.000;2024-03-23T04:45:51;19.20;54.30
85191;DHT22;75560;0.000;0.000;2024-03-23T04:48:20;19.20;54.30
85191;DHT22;75560;0.000;0.000;2024-03-23T04:50:45;19.10;54.20
85191;DHT22;75560;0.000;0.000;2024-03-23T04:53:11;19.20;54.30
85191;DHT22;75560;0.000;0.000;2024-03-23T04:55:36;19.20;54.30
85191;DHT22;75560;0.000;0.000;2024-03-23T04:58:02;19.20;54.30
85191;DHT22;75560;0.000;0.000;2024-03-23T05:00:28;19.20;54.30
85191;DHT22;75560;0.000;0.000;2024-03-23T05:02:53;19.20;54.20
85191;DHT22;75560;0.000;0.000;2024-03-23T05:05:19;19.20;54.00
85191;DHT22;75560;0.000;0.000;2024-03-23T05:07:45;19.20;54.00
85191;DHT22;75560;0.000;0.000;2024-03-23T05:10:10;19.20;54.00
85191;DHT22;75560;0.000;0.000;2024-03-23T05:12:37;19.20;54.10
85191;DHT22;75560;0.000;0.000;2024-03-23T05:15:04;19.20;54.30
85191;DHT22;75560;0.000;0.000;2024-03-23T05:17:34;19.30;54.40
85191;DHT22;75560;0.000;0.000;2024-03-23T05:20:00;19.30;54.70
85191;DHT22;75560;0.000;0.000;2024-03-23T05:22:25;19.30;54.70
85191;DHT22;75560;0.000;0.000;2024-03-23T05:24:52;19.30;54.10
85191;DHT22;75560;0.000;0.000;2024-03-23T05:27:18;19.30;54.90
85191;DHT22;75560;0.000;0.000;2024-03-23T05:29:44;19.40;54.70
85191;DHT22;75560;0.000;0.000;2024-03-23T05:32:09;19.40;54.90
85191;DHT22;75560;0.000;0.000;2024-03-23T05:34:35;19.40;54.60
85191;DHT22;75560;0.000;0.000;2024-03-23T05:37:00;19.40;54.80
85191;DHT22;75560;0.000;0.000;2024-03-23T05:39:26;19.50;54.80
85191;DHT22;75560;0.000;0.000;2024-03-23T05:41:51;19.50;54.80
85191;DHT22;75560;0.000;0.000;2024-03-23T05:44:17;19.50;54.60
85191;DHT22;75560;0.000;0.000;2024-03-23T05:46:42;19.60;54.40
85191;DHT22;75560;0.000;0.000;2024-03-23T05:49:13;19.60;54.60
85191;DHT22;75560;0.000;0.000;2024-03-23T05:51:39;19.70;54.40
85191;DHT22;75560;0.000;0.000;2024-03-23T05:54:04;19.70;54.70
85191;DHT22;75560;0.000;0.000;2024-03-23T05:56:31;19.70;54.30
85191;DHT22;75560;0.000;0.000;2024-03-23T05:58:57;19.70;54.40
85191;DHT22;75560;0.000;0.000;2024-03-23T06:01:22;19.70;54.30
85191;DHT22;75560;0.000;0.000;2024-03-23T06:03:48;19.70;54.20
85191;DHT22;75560;0.000;0.000;2024-03-23T06:06:13;19.70;53.90
85191;DHT22;75560;0.000;0.000;2024-03-23T06:08:39;19.80;53.60
85191;DHT22;75560;0.000;0.000;2024-03-23T06:11:05;19.80;53.10
85191;DHT22;75560;0.000;0.000;2024-03-23T06:13:32;19.80;53.10
85191;DHT22;75560;0.000;0.000;2024-03-23T06:15:57;19.80;53.10
85191;DHT22;75560;0.000;0.000;2024-03-23T06:18:24;19.90;53.00
85191;DHT22;75560;0.000;0.000;2024-03-23T06:20:49;19.90;52.90
85191;DHT22;75560;0.000;0.000;2024-03-23T06:23:15;19.90;52.80
85191;DHT22;75560;0.000;0.000;2024-03-23T06:25:42;19.90;52.60
85191;DHT22;75560;0.000;0.000;2024-03-23T06:28:08;20.00;52.70
85191;DHT22;75560;0.000;0.000;2024-03-23T06:30:34;20.00;52.40
85191;DHT22;75560;0.000;0.000;2024-03-23T06:32:59;20.00;52.40
85191;DHT22;75560;0.000;0.000;2024-03-23T06:35:25;20.00;52.30
85191;DHT22;75560;0.000;0.000;2024-03-23T06:37:50;20.00;52.50
85191;DHT22;75560;0.000;0.000;2024-03-23T06:40:17;20.10;52.40
85191;DHT22;75560;0.000;0.000;2024-03-23T06:42:43;20.10;52.30
85191;DHT22;75560;0.000;0.000;2024-03-23T06:45:09;20.10;52.30
85191;DHT22;75560;0.000;0.000;2024-03-23T06:47:34;20.00;52.20
85191;DHT22;75560;0.000;0.000;2024-03-23T06:50:01;20.10;52.40
85191;DHT22;75560;0.000;0.000;2024-03-23T06:52:30;20.10;52.20
85191;DHT22;75560;0.000;0.000;2024-03-23T06:54:55;20.10;52.30
85191;DHT22;75560;0.000;0.000;2024-03-23T06:57:21;20.00;52.50
85191;DHT22;75560;0.000;0.000;2024-03-23T06:59:47;20.00;52.30
85191;DHT22;75560;0.000;0.000;2024-03-23T07:02:12;20.00;53.20
85191;DHT22;75560;0.000;0.000;2024-03-23T07:04:38;20.00;52.50
85191;DHT22;75560;0.000;0.000;2024-03-23T07:07:04;20.00;52.50
85191;DHT22;75560;0.000;0.000;2024-03-23T07:09:30;20.00;52.30
85191;DHT22;75560;0.000;0.000;2024-03-23T07:11:56;20.00;52.60
85191;DHT22;75560;0.000;0.000;2024-03-23T07:14:23;20.00;52.80
85191;DHT22;75560;0.000;0.000;2024-03-23T07:16:49;20.00;52.90
85191;DHT22;75560;0.000;0.000;2024-03-23T07:19:18;20.00;52.70
85191;DHT22;75560;0.000;0.000;2024-03-23T07:21:44;19.90;52.70
85191;DHT22;75560;0.000;0.000;2024-03-23T07:24:10;19.90;52.90
85191;DHT22;75560;0.000;0.000;2024-03-23T07:26:36;19.90;53.00
85191;DHT22;75560;0.000;0.000;2024-03-23T07:29:01;19.90;52.90
85191;DHT22;75560;0.000;0.000;2024-03-23T07:31:27;19.90;52.90
85191;DHT22;75560;0.000;0.000;2024-03-23T07:33:53;19.90;53.10
85191;DHT22;75560;0.000;0.000;2024-03-23T07:36:18;19.80;52.70
85191;DHT22;75560;0.000;0.000;2024-03-23T07:38:44;19.80;52.80
85191;DHT22;75560;0.000;0.000;2024-03-23T07:41:15;19.80;53.20
85191;DHT22;75560;0.000;0.000;2024-03-23T07:43:42;19.80;53.20
85191;DHT22;75560;0.000;0.000;2024-03-23T07:46:08;19.70;53.40
85191;DHT22;75560;0.000;0.000;2024-03-23T07:48:34;19.80;53.50
85191;DHT22;75560;0.000;0.000;2024-03-23T07:51:03;19.70;53.30
85191;DHT22;75560;0.000;0.000;2024-03-23T07:53:30;19.70;53.10
85191;DHT22;75560;0.000;0.000;2024-03-23T07:56:06;19.70;53.20
85191;DHT22;75560;0.000;0.000;2024-03-23T07:58:32;19.70;53.20
85191;DHT22;75560;0.000;0.000;2024-03-23T08:03:35;19.70;53.20
85191;DHT22;75560;0.000;0.000;2024-03-23T08:08:39;19.70;53.20
85191;DHT22;75560;0.000;0.000;2024-03-23T08:11:05;19.70;53.40
85191;DHT22;75560;0.000;0.000;2024-03-23T08:13:31;19.60;53.20
85191;DHT22;75560;0.000;0.000;2024-03-23T08:15:58;19.70;53.60
85191;DHT22;75560;0.000;0.000;2024-03-23T08:18:24;19.70;53.60
85191;DHT22;75560;0.000;0.000;2024-03-23T08:21:10;19.70;53.30
85191;DHT22;75560;0.000;0.000;2024-03-23T08:23:36;19.70;53.60
85191;DHT22;75560;0.000;0.000;2024-03-23T08:26:07;19.70;53.40
85191;DHT22;75560;0.000;0.000;2024-03-23T08:28:34;19.70;53.00
85191;DHT22;75560;0.000;0.000;2024-03-23T08:31:04;19.80;53.20
85191;DHT22;75560;0.000;0.000;2024-03-23T08:33:31;19.80;53.00
85191;DHT22;75560;0.000;0.000;2024-03-23T08:35:58;19.80;53.30
85191;DHT22;75560;0.000;0.000;2024-03-23T08:38:25;19.90;53.10
85191;DHT22;75560;0.000;0.000;2024-03-23T08:41:01;19.90;53.00
85191;DHT22;75560;0.000;0.000;2024-03-23T08:43:28;19.90;52.90
85191;DHT22;75560;0.000;0.000;2024-03-23T08:45:53;19.90;52.70
85191;DHT22;75560;0.000;0.000;2024-03-23T08:48:19;19.90;52.60
85191;DHT22;75560;0.000;0.000;2024-03-23T08:51:04;19.90;52.70
85191;DHT22;75560;0.000;0.000;2024-03-23T08:53:31;19.90;52.90
85191;DHT22;75560;0.000;0.000;2024-03-23T08:55:58;19.90;52.80
85191;DHT22;75560;0.000;0.000;2024-03-23T08:58:25;20.00;52.70
85191;DHT22;75560;0.000;0.000;2024-03-23T09:00:54;20.20;51.90
85191;DHT22;75560;0.000;0.000;2024-03-23T09:03:26;20.30;52.00
85191;DHT22;75560;0.000;0.000;2024-03-23T09:05:52;20.30;51.80
85191;DHT22;75560;0.000;0.000;2024-03-23T09:08:18;20.40;51.50
85191;DHT22;75560;0.000;0.000;2024-03-23T09:10:44;20.40;51.60
85191;DHT22;75560;0.000;0.000;2024-03-23T09:13:10;20.30;52.00
85191;DHT22;75560;0.000;0.000;2024-03-23T09:15:36;20.30;52.10
85191;DHT22;75560;0.000;0.000;2024-03-23T09:18:03;20.40;52.10
85191;DHT22;75560;0.000;0.000;2024-03-23T09:20:32;20.40;51.40
85191;DHT22;75560;0.000;0.000;2024-03-23T09:22:58;20.30;51.80
85191;DHT22;75560;0.000;0.000;2024-03-23T09:25:23;20.20;51.90
85191;DHT22;75560;0.000;0.000;2024-03-23T09:27:50;20.20;52.10
85191;DHT22;75560;0.000;0.000;2024-03-23T09:30:16;20.20;51.60
85191;DHT22;75560;0.000;0.000;2024-03-23T09:32:43;20.20;52.00
85191;DHT22;75560;0.000;0.000;2024-03-23T09:35:09;20.20;52.30
85191;DHT22;75560;0.000;0.000;2024-03-23T09:37:35;20.10;52.30
85191;DHT22;75560;0.000;0.000;2024-03-23T09:40:01;20.10;52.20
85191;DHT22;75560;0.000;0.000;2024-03-23T09:42:26;20.10;52.50
85191;DHT22;75560;0.000;0.000;2024-03-23T09:44:52;20.10;52.30
85191;DHT22;75560;0.000;0.000;2024-03-23T09:47:18;20.20;52.30
85191;DHT22;75560;0.000;0.000;2024-03-23T09:49:44;20.10;52.20
85191;DHT22;75560;0.000;0.000;2024-03-23T09:52:10;20.10;52.40
85191;DHT22;75560;0.000;0.000;2024-03-23T09:54:35;20.10;52.40
85191;DHT22;75560;0.000;0.000;2024-03-23T09:57:01;20.10;52.00
85191;DHT22;75560;0.000;0.000;2024-03-23T09:59:27;20.10;52.20
85191;DHT22;75560;0.000;0.000;2024-03-23T10:01:53;20.10;52.10
85191;DHT22;75560;0.000;0.000;2024-03-23T10:04:41;20.10;52.20
85191;DHT22;75560;0.000;0.000;2024-03-23T10:07:25;20.20;52.10
85191;DHT22;75560;0.000;0.000;2024-03-23T10:09:51;20.20;52.20
85191;DHT22;75560;0.000;0.000;2024-03-23T10:12:19;20.20;51.00
85191;DHT22;75560;0.000;0.000;2024-03-23T10:14:45;20.40;50.40
85191;DHT22;75560;0.000;0.000;2024-03-23T10:17:17;20.80;49.60
85191;DHT22;75560;0.000;0.000;2024-03-23T10:19:44;20.60;49.70
85191;DHT22;75560;0.000;0.000;2024-03-23T10:22:14;20.40;50.40
85191;DHT22;75560;0.000;0.000;2024-03-23T10:24:40;20.30;50.20
85191;DHT22;75560;0.000;0.000;2024-03-23T10:27:05;20.20;50.70
85191;DHT22;75560;0.000;0.000;2024-03-23T10:29:31;20.10;51.70
85191;DHT22;75560;0.000;0.000;2024-03-23T10:32:13;20.20;52.30
85191;DHT22;75560;0.000;0.000;2024-03-23T10:34:39;20.30;51.20
85191;DHT22;75560;0.000;0.000;2024-03-23T10:37:05;20.20;51.80
85191;DHT22;75560;0.000;0.000;2024-03-23T10:39:38;20.20;50.90
85191;DHT22;75560;0.000;0.000;2024-03-23T10:42:08;20.10;52.10
85191;DHT22;75560;0.000;0.000;2024-03-23T10:44:35;20.10;52.10
85191;DHT22;75560;0.000;0.000;2024-03-23T10:47:02;20.10;51.70
85191;DHT22;75560;0.000;0.000;2024-03-23T10:49:32;20.10;52.00
85191;DHT22;75560;0.000;0.000;2024-03-23T10:51:58;20.10;51.70
85191;DHT22;75560;0.000;0.000;2024-03-23T10:54:27;20.10;51.80
85191;DHT22;75560;0.000;0.000;2024-03-23T10:57:03;20.10;51.70
85191;DHT22;75560;0.000;0.000;2024-03-23T10:59:30;20.10;52.10
85191;DHT22;75560;0.000;0.000;2024-03-23T11:02:00;20.10;51.70
85191;DHT22;75560;0.000;0.000;2024-03-23T11:04:40;20.10;52.50
85191;DHT22;75560;0.000;0.000;2024-03-23T11:09:55;20.20;51.30
85191;DHT22;75560;0.000;0.000;2024-03-23T11:15:03;20.30;51.90
85191;DHT22;75560;0.000;0.000;2024-03-23T11:17:29;20.20;50.90
85191;DHT22;75560;0.000;0.000;2024-03-23T11:20:05;20.20;51.60
85191;DHT22;75560;0.000;0.000;2024-03-23T11:25:22;21.30;48.90
85191;DHT22;75560;0.000;0.000;2024-03-23T11:27:53;21.30;48.50
85191;DHT22;75560;0.000;0.000;2024-03-23T11:30:28;21.30;48.80
85191;DHT22;75560;0.000;0.000;2024-03-23T11:32:55;21.70;47.70
85191;DHT22;75560;0.000;0.000;2024-03-23T11:35:25;21.50;48.40
85191;DHT22;75560;0.000;0.000;2024-03-23T11:38:07;21.00;49.50
85191;DHT22;75560;0.000;0.000;2024-03-23T11:40:34;20.70;51.40
85191;DHT22;75560;0.000;0.000;2024-03-23T11:43:02;20.50;51.40
85191;DHT22;75560;0.000;0.000;2024-03-23T11:45:28;20.40;51.70
85191;DHT22;75560;0.000;0.000;2024-03-23T11:48:14;20.30;52.00
85191;DHT22;75560;0.000;0.000;2024-03-23T11:50:41;20.30;52.20
85191;DHT22;75560;0.000;0.000;2024-03-23T11:53:18;20.30;52.30
85191;DHT22;75560;0.000;0.000;2024-03-23T11:55:55;20.20;52.30
85191;DHT22;75560;0.000;0.000;2024-03-23T11:58:25;20.20;52.30
85191;DHT22;75560;0.000;0.000;2024-03-23T12:00:52;20.20;52.30
85191;DHT22;75560;0.000;0.000;2024-03-23T12:03:19;20.20;52.20
85191;DHT22;75560;0.000;0.000;2024-03-23T12:05:50;20.20;52.20
85191;DHT22;75560;0.000;0.000;2024-03-23T12:08:22;20.20;52.30
85191;DHT22;75560;0.000;0.000;2024-03-23T12:11:12;20.20;52.20
85191;DHT22;75560;0.000;0.000;2024-03-23T12:13:41;20.20;52.20
85191;DHT22;75560;0.000;0.000;2024-03-23T12:16:13;20.10;52.40
85191;DHT22;75560;0.000;0.000;2024-03-23T12:18:41;20.10;52.40
85191;DHT22;75560;0.000;0.000;2024-03-23T12:21:07;20.10;52.40
85191;DHT22;75560;0.000;0.000;2024-03-23T12:23:33;20.10;52.40
85191;DHT22;75560;0.000;0.000;2024-03-23T12:25:59;20.20;52.20
85191;DHT22;75560;0.000;0.000;2024-03-23T12:28:24;20.40;51.70
85191;DHT22;75560;0.000;0.000;2024-03-23T12:30:51;20.50;51.70
85191;DHT22;75560;0.000;0.000;2024-03-23T12:33:17;20.50;52.00
85191;DHT22;75560;0.000;0.000;2024-03-23T12:35:43;20.50;52.10
85191;DHT22;75560;0.000;0.000;2024-03-23T12:38:10;20.40;52.30
85191;DHT22;75560;0.000;0.000;2024-03-23T12:40:35;20.40;52.60
85191;DHT22;75560;0.000;0.000;2024-03-23T12:43:01;20.40;52.00
85191;DHT22;75560;0.000;0.000;2024-03-23T12:45:26;20.40;52.60
85191;DHT22;75560;0.000;0.000;2024-03-23T12:47:52;20.40;52.30
85191;DHT22;75560;0.000;0.000;2024-03-23T12:50:21;20.40;52.30
85191;DHT22;75560;0.000;0.000;2024-03-23T12:52:47;20.40;52.20
85191;DHT22;75560;0.000;0.000;2024-03-23T12:55:12;20.40;52.50
85191;DHT22;75560;0.000;0.000;2024-03-23T12:57:38;20.40;52.50
85191;DHT22;75560;0.000;0.000;2024-03-23T13:00:04;20.40;52.20
85191;DHT22;75560;0.000;0.000;2024-03-23T13:02:30;20.50;52.60
85191;DHT22;75560;0.000;0.000;2024-03-23T13:04:57;20.50;52.40
85191;DHT22;75560;0.000;0.000;2024-03-23T13:07:49;20.50;52.30
85191;DHT22;75560;0.000;0.000;2024-03-23T13:10:15;20.50;52.20
85191;DHT22;75560;0.000;0.000;2024-03-23T13:12:41;20.60;52.30
85191;DHT22;75560;0.000;0.000;2024-03-23T13:15:08;20.50;52.30
85191;DHT22;75560;0.000;0.000;2024-03-23T13:17:34;20.40;52.30
85191;DHT22;75560;0.000;0.000;2024-03-23T13:19:59;20.40;52.40
85191;DHT22;75560;0.000;0.000;2024-03-23T13:22:25;20.40;51.50
85191;DHT22;75560;0.000;0.000;2024-03-23T13:24:50;20.40;51.80
85191;DHT22;75560;0.000;0.000;2024-03-23T13:27:16;20.30;52.10
85191;DHT22;75560;0.000;0.000;2024-03-23T13:29:41;20.30;52.30
85191;DHT22;75560;0.000;0.000;2024-03-23T13:32:08;20.40;51.80
85191;DHT22;75560;0.000;0.000;2024-03-23T13:34:34;20.40;51.90
85191;DHT22;75560;0.000;0.000;2024-03-23T13:37:00;20.40;52.40
85191;DHT22;75560;0.000;0.000;2024-03-23T13:39:26;20.40;52.10
85191;DHT22;75560;0.000;0.000;2024-03-23T13:41:54;20.40;52.30
85191;DHT22;75560;0.000;0.000;2024-03-23T13:44:21;20.40;52.60
85191;DHT22;75560;0.000;0.000;2024-03-23T13:46:46;20.30;52.60
85191;DHT22;75560;0.000;0.000;2024-03-23T13:49:27;20.30;53.00
85191;DHT22;75560;0.000;0.000;2024-03-23T13:51:53;20.30;52.90
85191;DHT22;75560;0.000;0.000;2024-03-23T13:54:20;20.30;52.90
85191;DHT22;75560;0.000;0.000;2024-03-23T13:56:47;20.30;52.50
85191;DHT22;75560;0.000;0.000;2024-03-23T13:59:12;20.30;52.90
85191;DHT22;75560;0.000;0.000;2024-03-23T14:01:38;20.30;52.90
85191;DHT22;75560;0.000;0.000;2024-03-23T14:04:04;20.30;52.90
85191;DHT22;75560;0.000;0.000;2024-03-23T14:06:29;20.30;53.00
85191;DHT22;75560;0.000;0.000;2024-03-23T14:08:57;20.20;53.00
85191;DHT22;75560;0.000;0.000;2024-03-23T14:11:22;20.20;53.00
85191;DHT22;75560;0.000;0.000;2024-03-23T14:13:48;20.20;53.20
85191;DHT22;75560;0.000;0.000;2024-03-23T14:16:13;20.20;53.00
85191;DHT22;75560;0.000;0.000;2024-03-23T14:18:39;20.20;52.90
85191;DHT22;75560;0.000;0.000;2024-03-23T14:21:04;20.20;53.00
85191;DHT22;75560;0.000;0.000;2024-03-23T14:23:31;20.20;52.80
85191;DHT22;75560;0.000;0.000;2024-03-23T14:26:00;20.20;52.70
85191;DHT22;75560;0.000;0.000;2024-03-23T14:28:26;20.20;52.50
85191;DHT22;75560;0.000;0.000;2024-03-23T14:30:54;20.20;52.60
85191;DHT22;75560;0.000;0.000;2024-03-23T14:33:20;20.20;52.30
85191;DHT22;75560;0.000;0.000;2024-03-23T14:35:55;20.20;52.20
85191;DHT22;75560;0.000;0.000;2024-03-23T14:38:22;20.20;52.40
85191;DHT22;75560;0.000;0.000;2024-03-23T14:40:48;20.20;52.30
85191;DHT22;75560;0.000;0.000;2024-03-23T14:43:14;20.30;52.60
85191;DHT22;75560;0.000;0.000;2024-03-23T14:48:31;20.30;52.70
85191;DHT22;75560;0.000;0.000;2024-03-23T14:50:58;20.30;52.50
85191;DHT22;75560;0.000;0.000;2024-03-23T14:53:24;20.30;51.80
85191;DHT22;75560;0.000;0.000;2024-03-23T14:55:50;20.30;50.30
85191;DHT22;75560;0.000;0.000;2024-03-23T14:58:16;20.20;49.50
85191;DHT22;75560;0.000;0.000;2024-03-23T15:00:41;20.20;47.30
85191;DHT22;75560;0.000;0.000;2024-03-23T15:03:07;20.20;46.30
85191;DHT22;75560;0.000;0.000;2024-03-23T15:05:32;20.10;45.30
85191;DHT22;75560;0.000;0.000;2024-03-23T15:07:58;20.10;45.30
85191;DHT22;75560;0.000;0.000;2024-03-23T15:10:23;20.10;44.90
85191;DHT22;75560;0.000;0.000;2024-03-23T15:12:49;20.00;44.60
85191;DHT22;75560;0.000;0.000;2024-03-23T15:15:15;19.90;45.00
85191;DHT22;75560;0.000;0.000;2024-03-23T15:17:40;19.90;44.60
85191;DHT22;75560;0.000;0.000;2024-03-23T15:20:10;19.80;44.50
85191;DHT22;75560;0.000;0.000;2024-03-23T15:22:37;19.80;44.20
85191;DHT22;75560;0.000;0.000;2024-03-23T15:25:02;19.70;43.80
85191;DHT22;75560;0.000;0.000;2024-03-23T15:27:28;19.70;43.60
85191;DHT22;75560;0.000;0.000;2024-03-23T15:29:56;19.70;43.40
85191;DHT22;75560;0.000;0.000;2024-03-23T15:32:22;19.60;42.70
85191;DHT22;75560;0.000;0.000;2024-03-23T15:34:48;19.60;42.70
85191;DHT22;75560;0.000;0.000;2024-03-23T15:37:13;19.70;42.80
85191;DHT22;75560;0.000;0.000;2024-03-23T15:39:40;19.70;43.50
85191;DHT22;75560;0.000;0.000;2024-03-23T15:42:07;19.70;44.00
85191;DHT22;75560;0.000;0.000;2024-03-23T15:44:32;19.60;44.30
85191;DHT22;75560;0.000;0.000;2024-03-23T15:46:58;19.70;44.70
85191;DHT22;75560;0.000;0.000;2024-03-23T15:49:23;19.70;44.90
85191;DHT22;75560;0.000;0.000;2024-03-23T15:51:49;19.70;45.20
85191;DHT22;75560;0.000;0.000;2024-03-23T15:54:14;19.70;45.70
85191;DHT22;75560;0.000;0.000;2024-03-23T15:56:40;19.70;45.70
85191;DHT22;75560;0.000;0.000;2024-03-23T15:59:05;19.70;45.90
85191;DHT22;75560;0.000;0.000;2024-03-23T16:01:32;19.70;46.00
85191;DHT22;75560;0.000;0.000;2024-03-23T16:04:01;19.70;46.30
85191;DHT22;75560;0.000;0.000;2024-03-23T16:06:27;19.70;46.60
85191;DHT22;75560;0.000;0.000;2024-03-23T16:08:52;19.70;46.80
85191;DHT22;75560;0.000;0.000;2024-03-23T16:11:19;19.70;46.90
85191;DHT22;75560;0.000;0.000;2024-03-23T16:13:45;19.60;47.10
85191;DHT22;75560;0.000;0.000;2024-03-23T16:16:12;19.70;47.20
85191;DHT22;75560;0.000;0.000;2024-03-23T16:18:38;19.60;47.20
85191;DHT22;75560;0.000;0.000;2024-03-23T16:21:07;19.70;47.30
85191;DHT22;75560;0.000;0.000;2024-03-23T16:23:34;19.70;47.40
85191;DHT22;75560;0.000;0.000;2024-03-23T16:26:00;19.70;47.60
85191;DHT22;75560;0.000;0.000;2024-03-23T16:28:35;19.70;47.80
85191;DHT22;75560;0.000;0.000;2024-03-23T16:31:03;19.70;47.80
85191;DHT22;75560;0.000;0.000;2024-03-23T16:33:29;19.70;47.70
85191;DHT22;75560;0.000;0.000;2024-03-23T16:36:02;19.70;47.90
85191;DHT22;75560;0.000;0.000;2024-03-23T16:38:30;19.70;48.00
85191;DHT22;75560;0.000;0.000;2024-03-23T16:40:59;19.70;47.80
85191;DHT22;75560;0.000;0.000;2024-03-23T16:43:25;19.80;48.10
85191;DHT22;75560;0.000;0.000;2024-03-23T16:45:59;19.80;48.00
85191;DHT22;75560;0.000;0.000;2024-03-23T16:48:26;19.80;47.80
85191;DHT22;75560;0.000;0.000;2024-03-23T16:50:52;19.80;47.80
85191;DHT22;75560;0.000;0.000;2024-03-23T16:53:18;19.80;48.00
85191;DHT22;75560;0.000;0.000;2024-03-23T16:55:44;19.80;48.10